Time;durP1;ratioP1;P1;durP2;ratioP2;P2;SDS_P1;SDS_P2;PMS_P1;PMS_P2;Temp;Humidity;BMP_temperature;BMP_pressure;BME280_temperature;BME280_humidity;BME280_pressure;Samples;Min_cycle;Max_cycle;Signal;HPM_P1;HPM_P2
2024/04/09 00:02:04;;;;;;;5.05;2.70;;;;;;;;;;5498983;25;20005;-75
2024/04/09 00:04:29;;;;;;;9.88;6.32;;;;;;;;;;5495148;26;20002;-73
2024/04/09 00:06:55;;;;;;;6.43;3.40;;;;;;;;;;5524368;25;20074;-74
2024/04/09 00:09:23;;;;;;;4.82;3.85;;;;;;;;;;5500264;26;20005;-74
2024/04/09 00:11:49;;;;;;;8.88;5.47;;;;;;;;;;5527659;25;20039;-74
2024/04/09 00:14:15;;;;;;;7.30;4.30;;;;;;;;;;5509546;25;20316;-74
2024/04/09 00:16:41;;;;;;;5.05;3.42;;;;;;;;;;5510822;25;20017;-75
2024/04/09 00:19:07;;;;;;;5.80;2.97;;;;;;;;;;5500154;26;20030;-73
2024/04/09 00:21:33;;;;;;;9.10;5.70;;;;;;;;;;5521641;25;20020;-74
2024/04/09 00:24:00;;;;;;;8.82;3.45;;;;;;;;;;5499734;25;20010;-74
2024/04/09 00:26:26;;;;;;;6.18;3.03;;;;;;;;;;5490855;26;19998;-75
2024/04/09 00:28:51;;;;;;;5.00;2.92;;;;;;;;;;5501702;26;20016;-76
2024/04/09 00:31:16;;;;;;;5.60;3.05;;;;;;;;;;5501994;25;20002;-77
2024/04/09 00:33:42;;;;;;;7.10;4.07;;;;;;;;;;5504858;25;20020;-77
2024/04/09 00:36:12;;;;;;;6.18;3.78;;;;;;;;;;5524482;25;20001;-68
2024/04/09 00:38:40;;;;;;;5.60;4.00;;;;;;;;;;5519541;25;20411;-65
2024/04/09 00:41:06;;;;;;;7.22;3.78;;;;;;;;;;5524197;25;20037;-75
2024/04/09 00:43:31;;;;;;;7.20;3.30;;;;;;;;;;5497064;25;19997;-76
2024/04/09 00:45:56;;;;;;;6.88;3.40;;;;;;;;;;5524161;25;19998;-77
2024/04/09 00:48:22;;;;;;;7.13;3.53;;;;;;;;;;5523259;25;20314;-76
2024/04/09 00:50:48;;;;;;;5.03;3.55;;;;;;;;;;5487677;26;20006;-74
2024/04/09 00:53:16;;;;;;;8.90;3.72;;;;;;;;;;5493657;26;20002;-75
2024/04/09 00:55:42;;;;;;;5.50;3.35;;;;;;;;;;5512345;25;19998;-76
2024/04/09 00:58:12;;;;;;;5.88;3.92;;;;;;;;;;5492974;26;20300;-68
2024/04/09 01:00:41;;;;;;;7.00;3.40;;;;;;;;;;5521505;26;20065;-75
2024/04/09 01:03:08;;;;;;;6.85;3.30;;;;;;;;;;5523481;25;20462;-75
2024/04/09 01:05:35;;;;;;;5.05;3.10;;;;;;;;;;5493333;25;20350;-75
2024/04/09 01:08:01;;;;;;;7.32;2.95;;;;;;;;;;5493127;26;20308;-74
2024/04/09 01:10:26;;;;;;;9.02;3.53;;;;;;;;;;5491894;26;19994;-74
2024/04/09 01:12:52;;;;;;;5.88;2.80;;;;;;;;;;5524393;25;20008;-74
2024/04/09 01:15:17;;;;;;;4.97;3.20;;;;;;;;;;5498220;26;20385;-77
2024/04/09 01:17:43;;;;;;;6.03;3.00;;;;;;;;;;5509423;25;20151;-77
2024/04/09 01:20:12;;;;;;;5.43;2.72;;;;;;;;;;5497064;26;20006;-76
2024/04/09 01:22:38;;;;;;;5.72;2.65;;;;;;;;;;5518973;26;20002;-76
2024/04/09 01:25:03;;;;;;;5.05;2.55;;;;;;;;;;5514372;25;20014;-76
2024/04/09 01:27:33;;;;;;;5.35;2.60;;;;;;;;;;5490483;26;20306;-76
2024/04/09 01:30:00;;;;;;;8.07;3.53;;;;;;;;;;5491379;26;19998;-76
2024/04/09 01:32:26;;;;;;;5.05;3.13;;;;;;;;;;5491509;25;20010;-76
2024/04/09 01:34:52;;;;;;;5.03;3.20;;;;;;;;;;5510609;26;20094;-75
2024/04/09 01:37:18;;;;;;;6.53;3.15;;;;;;;;;;5517061;25;20002;-76
2024/04/09 01:39:45;;;;;;;10.93;3.17;;;;;;;;;;5489332;26;20412;-77
2024/04/09 01:42:14;;;;;;;6.00;3.10;;;;;;;;;;5496498;26;20014;-65
2024/04/09 01:44:39;;;;;;;6.25;3.42;;;;;;;;;;5512321;26;20375;-75
2024/04/09 01:47:05;;;;;;;5.30;3.40;;;;;;;;;;5497671;25;20013;-75
2024/04/09 01:49:31;;;;;;;6.40;3.42;;;;;;;;;;5514445;25;20840;-74
2024/04/09 01:51:56;;;;;;;6.20;3.45;;;;;;;;;;5515843;26;20071;-75
2024/04/09 01:54:22;;;;;;;6.85;3.25;;;;;;;;;;5495596;26;20009;-76
2024/04/09 01:56:48;;;;;;;4.22;3.03;;;;;;;;;;5491807;26;20034;-74
2024/04/09 01:59:14;;;;;;;7.35;3.20;;;;;;;;;;5487995;26;20290;-73
2024/04/09 02:01:42;;;;;;;9.80;3.83;;;;;;;;;;5515888;25;20017;-76
2024/04/09 02:04:07;;;;;;;7.53;3.45;;;;;;;;;;5498646;26;20013;-73
2024/04/09 02:06:33;;;;;;;6.43;3.30;;;;;;;;;;5512366;25;20006;-74
2024/04/09 02:08:58;;;;;;;6.18;3.70;;;;;;;;;;5508063;25;20002;-76
2024/04/09 02:11:28;;;;;;;6.07;3.67;;;;;;;;;;5500699;25;20412;-75
2024/04/09 02:13:55;;;;;;;8.80;4.05;;;;;;;;;;5517956;25;19997;-75
2024/04/09 02:16:22;;;;;;;8.18;4.10;;;;;;;;;;5497705;26;20021;-76
2024/04/09 02:18:47;;;;;;;7.18;3.95;;;;;;;;;;5509060;26;19998;-76
2024/04/09 02:21:15;;;;;;;5.30;4.25;;;;;;;;;;5519098;25;20005;-75
2024/04/09 02:23:40;;;;;;;7.70;4.75;;;;;;;;;;5506373;25;19998;-76
2024/04/09 02:26:06;;;;;;;8.18;4.60;;;;;;;;;;5489012;26;20005;-75
2024/04/09 02:28:32;;;;;;;9.70;5.10;;;;;;;;;;5492810;26;20006;-77
2024/04/09 02:30:58;;;;;;;8.73;5.32;;;;;;;;;;5525726;25;20001;-74
2024/04/09 02:33:23;;;;;;;10.00;5.97;;;;;;;;;;5501073;26;19998;-71
2024/04/09 02:35:59;;;;;;;8.02;5.65;;;;;;;;;;5516108;25;20012;-68
2024/04/09 02:38:25;;;;;;;8.10;5.65;;;;;;;;;;5508128;26;20367;-73
2024/04/09 02:40:51;;;;;;;11.98;6.63;;;;;;;;;;5492658;26;20012;-73
2024/04/09 02:43:16;;;;;;;10.73;6.78;;;;;;;;;;5523953;25;19998;-73
2024/04/09 02:45:42;;;;;;;10.00;6.90;;;;;;;;;;5524262;25;20005;-73
2024/04/09 02:48:07;;;;;;;11.20;7.43;;;;;;;;;;5508814;26;20006;-74
2024/04/09 02:50:33;;;;;;;12.60;7.25;;;;;;;;;;5486338;26;20071;-73
2024/04/09 02:52:58;;;;;;;9.93;7.13;;;;;;;;;;5511805;26;19997;-73
2024/04/09 02:55:23;;;;;;;12.02;7.30;;;;;;;;;;5525890;25;20000;-72
2024/04/09 02:57:49;;;;;;;11.38;7.75;;;;;;;;;;5492018;26;20420;-73
2024/04/09 03:00:20;;;;;;;15.13;7.78;;;;;;;;;;5523178;25;20004;-73
2024/04/09 03:02:53;;;;;;;15.30;7.90;;;;;;;;;;5524663;25;20012;-71
2024/04/09 03:05:29;;;;;;;10.45;6.35;;;;;;;;;;5524887;26;20408;-72
2024/04/09 03:07:55;;;;;;;9.32;6.15;;;;;;;;;;5495224;25;20034;-73
2024/04/09 03:10:20;;;;;;;13.00;6.20;;;;;;;;;;5487865;26;20071;-73
2024/04/09 03:12:46;;;;;;;12.50;6.88;;;;;;;;;;5501704;26;20377;-71
2024/04/09 03:15:11;;;;;;;12.93;6.88;;;;;;;;;;5523285;26;20292;-72
2024/04/09 03:17:37;;;;;;;12.30;7.78;;;;;;;;;;5524210;25;20319;-74
2024/04/09 03:20:04;;;;;;;13.23;7.30;;;;;;;;;;5524158;25;20070;-73
2024/04/09 03:22:30;;;;;;;14.00;8.30;;;;;;;;;;5499089;25;20002;-72
2024/04/09 03:24:55;;;;;;;12.98;7.60;;;;;;;;;;5487542;26;20357;-73
2024/04/09 03:27:20;;;;;;;12.07;7.35;;;;;;;;;;5490621;26;19998;-71
2024/04/09 03:29:49;;;;;;;16.58;8.02;;;;;;;;;;5503774;26;19994;-72
2024/04/09 03:32:14;;;;;;;9.73;7.03;;;;;;;;;;5485673;26;20089;-73
2024/04/09 03:34:39;;;;;;;11.00;6.05;;;;;;;;;;5487057;26;20370;-74
2024/04/09 03:37:05;;;;;;;10.68;6.43;;;;;;;;;;5506902;26;20016;-73
2024/04/09 03:39:30;;;;;;;11.63;5.95;;;;;;;;;;5525768;25;20009;-74
2024/04/09 03:41:55;;;;;;;9.68;6.05;;;;;;;;;;5528282;25;20066;-73
2024/04/09 03:44:21;;;;;;;11.85;6.00;;;;;;;;;;5496070;26;20004;-73
2024/04/09 03:46:46;;;;;;;9.27;5.82;;;;;;;;;;5526367;25;20090;-74
2024/04/09 03:49:12;;;;;;;9.80;5.60;;;;;;;;;;5527721;25;20396;-73
2024/04/09 03:51:37;;;;;;;8.13;6.18;;;;;;;;;;5515696;25;20737;-72
2024/04/09 03:54:02;;;;;;;15.02;6.88;;;;;;;;;;5490810;26;20373;-73
2024/04/09 03:56:28;;;;;;;12.13;6.65;;;;;;;;;;5488427;26;20002;-73
2024/04/09 03:58:54;;;;;;;9.68;6.20;;;;;;;;;;5459076;26;19999;-75
2024/04/09 04:01:19;;;;;;;10.48;6.68;;;;;;;;;;5502264;26;20002;-70
2024/04/09 04:03:46;;;;;;;11.27;6.22;;;;;;;;;;5495161;26;20002;-74
2024/04/09 04:06:11;;;;;;;11.73;6.38;;;;;;;;;;5522206;25;20012;-73
2024/04/09 04:08:38;;;;;;;12.70;7.43;;;;;;;;;;5528295;25;20009;-73
2024/04/09 04:11:05;;;;;;;11.60;6.95;;;;;;;;;;5527816;25;20011;-75
2024/04/09 04:13:31;;;;;;;11.18;5.97;;;;;;;;;;5526911;25;20469;-74
2024/04/09 04:16:07;;;;;;;9.63;6.28;;;;;;;;;;5526734;25;20001;-74
2024/04/09 04:18:36;;;;;;;11.27;5.82;;;;;;;;;;5525381;25;20033;-72
2024/04/09 04:21:02;;;;;;;15.20;6.43;;;;;;;;;;5495247;26;20001;-74
2024/04/09 04:23:28;;;;;;;11.70;5.95;;;;;;;;;;5526837;25;20006;-73
2024/04/09 04:26:01;;;;;;;8.73;5.65;;;;;;;;;;5511043;25;20001;-73
2024/04/09 04:28:27;;;;;;;10.52;5.85;;;;;;;;;;5491376;26;20002;-73
2024/04/09 04:30:52;;;;;;;12.02;5.70;;;;;;;;;;5458867;26;20013;-74
2024/04/09 04:33:17;;;;;;;11.70;5.35;;;;;;;;;;5460276;26;20002;-74
2024/04/09 04:35:43;;;;;;;7.45;4.93;;;;;;;;;;5524682;25;19997;-73
2024/04/09 04:38:08;;;;;;;9.70;5.78;;;;;;;;;;5521944;25;20012;-75
2024/04/09 04:40:33;;;;;;;9.43;4.68;;;;;;;;;;5488833;26;20419;-76
2024/04/09 04:42:59;;;;;;;9.75;4.63;;;;;;;;;;5487437;26;20009;-73
2024/04/09 04:45:24;;;;;;;9.85;4.53;;;;;;;;;;5489428;26;20305;-73
2024/04/09 04:47:50;;;;;;;8.93;3.78;;;;;;;;;;5489851;26;20009;-73
2024/04/09 04:50:15;;;;;;;9.20;4.20;;;;;;;;;;5491239;25;20277;-73
2024/04/09 04:52:40;;;;;;;11.10;3.88;;;;;;;;;;5456853;26;20867;-73
2024/04/09 04:55:06;;;;;;;8.13;3.85;;;;;;;;;;5489419;26;19994;-73
2024/04/09 04:57:32;;;;;;;10.00;4.38;;;;;;;;;;5460505;26;20020;-73
2024/04/09 04:59:57;;;;;;;11.63;4.38;;;;;;;;;;5520318;26;20011;-73
2024/04/09 05:02:23;;;;;;;10.15;4.07;;;;;;;;;;5524735;25;20354;-71
2024/04/09 05:04:53;;;;;;;10.20;4.28;;;;;;;;;;5521615;25;20042;-74
2024/04/09 05:07:22;;;;;;;9.20;3.88;;;;;;;;;;5494109;25;20001;-74
2024/04/09 05:09:48;;;;;;;9.73;3.63;;;;;;;;;;5526175;25;20001;-73
2024/04/09 05:12:13;;;;;;;9.02;4.15;;;;;;;;;;5524329;25;19998;-73
2024/04/09 05:14:39;;;;;;;9.73;3.63;;;;;;;;;;5509634;26;20042;-74
2024/04/09 05:17:04;;;;;;;16.63;8.45;;;;;;;;;;5489586;26;20009;-75
2024/04/09 05:19:32;;;;;;;11.43;4.30;;;;;;;;;;5458734;26;20379;-74
2024/04/09 05:21:58;;;;;;;9.70;3.97;;;;;;;;;;5489149;26;20125;-73
2024/04/09 05:24:23;;;;;;;6.95;3.10;;;;;;;;;;5487758;26;20304;-72
2024/04/09 05:26:49;;;;;;;9.38;3.40;;;;;;;;;;5488960;26;20309;-74
2024/04/09 05:29:14;;;;;;;9.82;3.20;;;;;;;;;;5487217;26;20009;-73
2024/04/09 05:31:41;;;;;;;6.80;3.17;;;;;;;;;;5457451;26;20014;-74
2024/04/09 05:34:06;;;;;;;9.82;3.30;;;;;;;;;;5494186;26;20013;-75
2024/04/09 05:36:32;;;;;;;9.45;3.22;;;;;;;;;;5486966;26;19994;-74
2024/04/09 05:38:57;;;;;;;8.82;3.80;;;;;;;;;;5494767;26;20006;-74
2024/04/09 05:41:23;;;;;;;8.73;3.17;;;;;;;;;;5486639;26;19998;-72
2024/04/09 05:43:48;;;;;;;11.10;3.70;;;;;;;;;;5469124;26;20015;-76
2024/04/09 05:46:14;;;;;;;7.53;3.25;;;;;;;;;;5524761;26;20007;-74
2024/04/09 05:48:39;;;;;;;8.27;3.60;;;;;;;;;;5516141;25;20070;-77
2024/04/09 05:51:05;;;;;;;10.68;3.45;;;;;;;;;;5523691;26;19999;-76
2024/04/09 05:53:30;;;;;;;7.25;3.50;;;;;;;;;;5524304;25;20002;-73
2024/04/09 05:55:56;;;;;;;9.00;3.10;;;;;;;;;;5526873;25;19997;-72
2024/04/09 05:58:21;;;;;;;9.27;3.25;;;;;;;;;;5525926;25;20448;-74
2024/04/09 06:00:47;;;;;;;11.05;3.92;;;;;;;;;;5523188;25;20404;-74
2024/04/09 06:03:13;;;;;;;12.07;4.38;;;;;;;;;;5522959;25;20001;-73
2024/04/09 06:05:38;;;;;;;9.10;3.78;;;;;;;;;;5513570;26;20063;-74
2024/04/09 06:08:04;;;;;;;8.65;3.63;;;;;;;;;;5508384;26;20017;-73
2024/04/09 06:10:30;;;;;;;14.52;5.22;;;;;;;;;;5488661;26;20009;-72
2024/04/09 06:12:55;;;;;;;8.52;4.85;;;;;;;;;;5488059;26;20396;-71
2024/04/09 06:15:22;;;;;;;13.85;6.38;;;;;;;;;;5489802;26;20018;-75
2024/04/09 06:17:47;;;;;;;10.85;3.75;;;;;;;;;;5487862;26;19998;-73
2024/04/09 06:20:13;;;;;;;7.57;3.38;;;;;;;;;;5457569;26;20026;-77
2024/04/09 06:22:38;;;;;;;8.65;4.05;;;;;;;;;;5493884;26;20014;-76
2024/04/09 06:25:04;;;;;;;10.10;3.90;;;;;;;;;;5489448;26;20309;-76
2024/04/09 06:27:30;;;;;;;8.18;4.80;;;;;;;;;;5462065;26;20075;-75
2024/04/09 06:29:55;;;;;;;9.57;3.88;;;;;;;;;;5486683;26;20002;-77
2024/04/09 06:32:20;;;;;;;5.55;3.47;;;;;;;;;;5457147;26;20002;-78
2024/04/09 06:34:46;;;;;;;7.90;3.53;;;;;;;;;;5489981;26;19998;-76
2024/04/09 06:37:11;;;;;;;7.45;3.28;;;;;;;;;;5486863;26;20009;-78
2024/04/09 06:39:37;;;;;;;8.75;3.50;;;;;;;;;;5486079;26;20401;-78
2024/04/09 06:42:03;;;;;;;8.18;3.30;;;;;;;;;;5456702;26;19994;-78
2024/04/09 06:44:28;;;;;;;7.03;3.10;;;;;;;;;;5489630;26;20078;-75
2024/04/09 06:46:54;;;;;;;7.05;3.08;;;;;;;;;;5489141;26;19994;-77
2024/04/09 06:49:19;;;;;;;8.30;3.13;;;;;;;;;;5487943;26;19990;-77
2024/04/09 06:51:45;;;;;;;6.95;3.30;;;;;;;;;;5512047;26;20071;-79
2024/04/09 06:54:10;;;;;;;6.85;3.10;;;;;;;;;;5487912;26;20008;-78
2024/04/09 06:56:36;;;;;;;5.38;3.65;;;;;;;;;;5486221;26;20071;-80
2024/04/09 06:59:01;;;;;;;5.55;2.75;;;;;;;;;;5486852;26;20009;-77
2024/04/09 07:01:26;;;;;;;22.50;4.15;;;;;;;;;;5486649;26;20327;-81
2024/04/09 07:03:52;;;;;;;7.63;2.85;;;;;;;;;;5486137;26;20466;-80
2024/04/09 07:06:17;;;;;;;10.00;3.17;;;;;;;;;;5509093;26;20038;-78
2024/04/09 07:08:43;;;;;;;9.35;3.38;;;;;;;;;;5525078;25;19997;-80
2024/04/09 07:11:08;;;;;;;12.73;3.00;;;;;;;;;;5523647;25;19997;-79
2024/04/09 07:13:33;;;;;;;6.70;3.17;;;;;;;;;;5492506;26;20066;-77
2024/04/09 07:15:59;;;;;;;6.80;3.13;;;;;;;;;;5521140;25;20073;-78
2024/04/09 07:18:26;;;;;;;6.60;2.97;;;;;;;;;;5492735;26;20001;-79
2024/04/09 07:20:52;;;;;;;7.18;3.17;;;;;;;;;;5522946;25;20002;-78
2024/04/09 07:23:17;;;;;;;7.13;2.92;;;;;;;;;;5522325;26;19997;-76
2024/04/09 07:25:42;;;;;;;7.13;3.40;;;;;;;;;;5525653;25;20005;-78
2024/04/09 07:28:08;;;;;;;6.93;3.10;;;;;;;;;;5492651;26;20001;-78
2024/04/09 07:30:35;;;;;;;7.18;3.13;;;;;;;;;;5505648;25;20047;-81
2024/04/09 07:33:02;;;;;;;11.50;3.00;;;;;;;;;;5486058;26;20078;-76
2024/04/09 07:35:27;;;;;;;11.25;4.10;;;;;;;;;;5488432;26;20002;-80
2024/04/09 07:37:53;;;;;;;11.10;3.80;;;;;;;;;;5487457;26;20385;-68
2024/04/09 07:40:19;;;;;;;13.85;3.72;;;;;;;;;;5502782;25;20012;-66
2024/04/09 07:42:44;;;;;;;9.18;3.72;;;;;;;;;;5502057;25;20353;-70
2024/04/09 07:45:10;;;;;;;11.63;4.45;;;;;;;;;;5497605;25;19997;-69
2024/04/09 07:47:35;;;;;;;12.68;3.83;;;;;;;;;;5523623;25;19997;-69
2024/04/09 07:50:08;;;;;;;13.88;3.83;;;;;;;;;;5522704;25;20285;-69
2024/04/09 07:52:37;;;;;;;14.27;4.10;;;;;;;;;;5510758;26;20024;-68
2024/04/09 07:55:03;;;;;;;16.17;4.43;;;;;;;;;;5503167;25;20064;-70
2024/04/09 07:57:29;;;;;;;13.88;4.15;;;;;;;;;;5521914;26;20025;-68
2024/04/09 07:59:54;;;;;;;11.38;3.92;;;;;;;;;;5523580;25;20319;-69
2024/04/09 08:02:19;;;;;;;11.25;3.50;;;;;;;;;;5524085;25;20009;-69
2024/04/09 08:04:45;;;;;;;11.43;3.78;;;;;;;;;;5521793;25;20001;-69
2024/04/09 08:07:10;;;;;;;10.20;4.13;;;;;;;;;;5515381;25;20017;-68
2024/04/09 08:09:36;;;;;;;8.75;3.47;;;;;;;;;;5495415;26;20002;-66
2024/04/09 08:12:01;;;;;;;12.02;3.70;;;;;;;;;;5486803;26;19998;-68
2024/04/09 08:14:26;;;;;;;15.88;4.22;;;;;;;;;;5499036;26;20001;-65
2024/04/09 08:16:52;;;;;;;9.27;3.15;;;;;;;;;;5512628;25;19993;-67
2024/04/09 08:19:17;;;;;;;11.35;3.60;;;;;;;;;;5509265;25;19998;-65
2024/04/09 08:21:42;;;;;;;11.15;3.47;;;;;;;;;;5499328;25;20001;-66
2024/04/09 08:24:08;;;;;;;9.32;3.35;;;;;;;;;;5522871;25;20001;-66
2024/04/09 08:26:33;;;;;;;10.95;3.45;;;;;;;;;;5510000;25;20002;-64
2024/04/09 08:29:03;;;;;;;11.63;3.25;;;;;;;;;;5505340;25;20010;-69
2024/04/09 08:31:31;;;;;;;9.80;3.90;;;;;;;;;;5514827;25;20095;-65
2024/04/09 08:33:57;;;;;;;14.02;3.83;;;;;;;;;;5526114;25;20043;-67
2024/04/09 08:36:27;;;;;;;16.88;4.22;;;;;;;;;;5512638;25;20014;-69
2024/04/09 08:38:53;;;;;;;11.38;3.67;;;;;;;;;;5490090;26;19998;-68
2024/04/09 08:41:20;;;;;;;12.43;3.85;;;;;;;;;;5518068;25;20012;-71
2024/04/09 08:43:46;;;;;;;12.85;3.83;;;;;;;;;;5525835;25;20021;-68
2024/04/09 08:46:12;;;;;;;12.68;4.03;;;;;;;;;;5525955;25;20095;-69
2024/04/09 08:48:38;;;;;;;14.60;4.00;;;;;;;;;;5527397;25;20001;-69
2024/04/09 08:51:04;;;;;;;12.75;3.63;;;;;;;;;;5517856;25;20404;-62
2024/04/09 08:53:32;;;;;;;22.52;5.30;;;;;;;;;;5526227;25;20008;-67
2024/04/09 08:55:57;;;;;;;11.45;4.32;;;;;;;;;;5502383;25;20324;-74
2024/04/09 08:58:23;;;;;;;13.75;4.57;;;;;;;;;;5497523;26;20013;-74
2024/04/09 09:00:49;;;;;;;12.32;4.70;;;;;;;;;;5515969;25;20289;-63
2024/04/09 09:03:14;;;;;;;22.67;4.88;;;;;;;;;;5522807;25;19998;-66
2024/04/09 09:05:39;;;;;;;12.52;4.10;;;;;;;;;;5525654;25;19998;-65
2024/04/09 09:08:05;;;;;;;11.07;4.53;;;;;;;;;;5525697;25;20005;-69
2024/04/09 09:10:31;;;;;;;15.55;5.03;;;;;;;;;;5525736;25;20408;-71
2024/04/09 09:13:02;;;;;;;13.57;5.47;;;;;;;;;;5525065;25;20042;-71
2024/04/09 09:15:28;;;;;;;13.10;6.00;;;;;;;;;;5526435;25;20009;-70
2024/04/09 09:17:55;;;;;;;12.82;5.38;;;;;;;;;;5523861;25;19993;-70
2024/04/09 09:20:22;;;;;;;14.77;5.55;;;;;;;;;;5518901;25;20057;-68
2024/04/09 09:22:47;;;;;;;13.85;5.47;;;;;;;;;;5515977;25;20074;-71
2024/04/09 09:25:15;;;;;;;16.45;5.80;;;;;;;;;;5523048;25;19998;-68
2024/04/09 09:27:41;;;;;;;13.30;5.13;;;;;;;;;;5523722;25;20336;-69
2024/04/09 09:30:06;;;;;;;11.07;5.07;;;;;;;;;;5526716;25;20009;-69
2024/04/09 09:32:32;;;;;;;16.08;5.72;;;;;;;;;;5524442;25;20008;-70
2024/04/09 09:35:00;;;;;;;16.98;6.10;;;;;;;;;;5516504;26;20015;-73
2024/04/09 09:37:27;;;;;;;15.73;7.20;;;;;;;;;;5514073;26;20010;-71
2024/04/09 09:39:55;;;;;;;17.90;6.57;;;;;;;;;;5488773;26;20013;-70
2024/04/09 09:42:21;;;;;;;15.35;6.00;;;;;;;;;;5519640;25;20001;-68
2024/04/09 09:44:47;;;;;;;14.20;4.90;;;;;;;;;;5517594;25;20074;-69
2024/04/09 09:47:12;;;;;;;13.52;6.13;;;;;;;;;;5524506;26;19993;-67
2024/04/09 09:49:38;;;;;;;12.23;5.95;;;;;;;;;;5495978;25;20343;-78
2024/04/09 09:52:04;;;;;;;12.73;5.25;;;;;;;;;;5489561;25;20411;-67
2024/04/09 09:54:30;;;;;;;12.38;4.97;;;;;;;;;;5490187;26;19994;-67
2024/04/09 09:56:57;;;;;;;13.30;5.15;;;;;;;;;;5504670;25;20074;-73
2024/04/09 09:59:28;;;;;;;11.88;5.82;;;;;;;;;;5489446;25;20528;-74
2024/04/09 10:01:54;;;;;;;9.65;5.55;;;;;;;;;;5491791;26;20207;-73
2024/04/09 10:04:22;;;;;;;9.65;5.10;;;;;;;;;;5478669;26;20293;-70
2024/04/09 10:07:01;;;;;;;10.88;5.60;;;;;;;;;;5488379;26;20014;-70
2024/04/09 10:09:37;;;;;;;14.77;6.05;;;;;;;;;;5486361;26;20017;-73
2024/04/09 10:12:02;;;;;;;;;;;;;;;;;;5509869;26;20005;-72
2024/04/09 10:14:36;;;;;;;14.23;6.37;;;;;;;;;;5523453;26;19930;-72
2024/04/09 10:17:10;;;;;;;17.13;6.40;;;;;;;;;;5489998;26;20005;-70
2024/04/09 10:19:35;;;;;;;9.65;5.78;;;;;;;;;;5518996;25;20346;-70
2024/04/09 10:22:01;;;;;;;11.55;6.60;;;;;;;;;;5522052;25;20002;-70
2024/04/09 10:24:27;;;;;;;15.50;5.90;;;;;;;;;;5455823;26;19998;-65
2024/04/09 10:26:53;;;;;;;10.82;6.00;;;;;;;;;;5499271;26;20002;-66
2024/04/09 10:29:20;;;;;;;12.35;5.45;;;;;;;;;;5486244;26;20067;-67
2024/04/09 10:31:46;;;;;;;9.68;5.53;;;;;;;;;;5516627;26;19994;-66
2024/04/09 10:34:21;;;;;;;14.40;5.82;;;;;;;;;;5488772;26;20012;-66
2024/04/09 10:36:48;;;;;;;11.02;5.10;;;;;;;;;;5505060;26;19997;-66
2024/04/09 10:39:14;;;;;;;9.25;5.13;;;;;;;;;;5524379;25;19997;-65
2024/04/09 10:41:40;;;;;;;9.65;5.20;;;;;;;;;;5510698;25;20013;-66
2024/04/09 10:44:08;;;;;;;8.27;5.35;;;;;;;;;;5523266;26;19997;-65
2024/04/09 10:46:34;;;;;;;9.70;5.45;;;;;;;;;;5525289;25;20089;-66
2024/04/09 10:48:59;;;;;;;12.30;6.22;;;;;;;;;;5524213;26;20066;-66
2024/04/09 10:51:25;;;;;;;12.15;5.50;;;;;;;;;;5523467;26;20501;-66
2024/04/09 10:53:50;;;;;;;10.57;5.78;;;;;;;;;;5524436;25;20005;-65
2024/04/09 10:56:15;;;;;;;14.07;5.90;;;;;;;;;;5524142;25;20017;-65
2024/04/09 10:58:41;;;;;;;15.38;6.10;;;;;;;;;;5522051;26;20001;-65
2024/04/09 11:01:07;;;;;;;13.73;6.50;;;;;;;;;;5524209;26;20017;-65
2024/04/09 11:03:32;;;;;;;11.80;6.03;;;;;;;;;;5525314;25;20347;-66
2024/04/09 11:05:58;;;;;;;14.35;6.75;;;;;;;;;;5491731;26;20051;-66
2024/04/09 11:08:28;;;;;;;16.75;6.43;;;;;;;;;;5524498;25;19998;-65
2024/04/09 11:10:54;;;;;;;15.25;6.35;;;;;;;;;;5524397;25;20001;-65
2024/04/09 11:13:19;;;;;;;11.77;6.55;;;;;;;;;;5523672;25;20307;-65
2024/04/09 11:15:45;;;;;;;14.73;6.53;;;;;;;;;;5524613;25;20002;-65
2024/04/09 11:18:19;;;;;;;15.02;6.38;;;;;;;;;;5524722;25;20310;-64
2024/04/09 11:20:50;;;;;;;11.88;7.22;;;;;;;;;;5523827;25;20002;-65
2024/04/09 11:23:16;;;;;;;13.02;7.43;;;;;;;;;;5522615;25;20001;-65
2024/04/09 11:25:41;;;;;;;10.93;7.13;;;;;;;;;;5525537;25;20009;-65
2024/04/09 11:28:06;;;;;;;12.48;7.78;;;;;;;;;;5515846;26;20071;-65
2024/04/09 11:30:35;;;;;;;12.13;7.22;;;;;;;;;;5487225;26;20013;-65
2024/04/09 11:33:02;;;;;;;13.38;7.57;;;;;;;;;;5487956;26;20352;-66
2024/04/09 11:35:28;;;;;;;13.30;7.45;;;;;;;;;;5485132;26;20071;-66
2024/04/09 11:37:57;;;;;;;16.85;7.80;;;;;;;;;;5454237;26;20358;-65
2024/04/09 11:40:23;;;;;;;13.90;7.38;;;;;;;;;;5488293;26;19998;-64
2024/04/09 11:42:49;;;;;;;14.65;8.23;;;;;;;;;;5508835;25;20005;-65
2024/04/09 11:45:21;;;;;;;11.57;8.18;;;;;;;;;;5523584;25;20008;-65
2024/04/09 11:47:47;;;;;;;16.70;8.90;;;;;;;;;;5523291;25;20001;-66
2024/04/09 11:50:12;;;;;;;11.73;8.13;;;;;;;;;;5524913;25;20002;-66
2024/04/09 11:52:38;;;;;;;15.50;9.23;;;;;;;;;;5522901;26;19997;-66
2024/04/09 11:55:04;;;;;;;11.73;7.75;;;;;;;;;;5490860;26;20001;-67
2024/04/09 11:57:30;;;;;;;11.15;8.02;;;;;;;;;;5526415;25;20008;-66
2024/04/09 11:59:55;;;;;;;17.13;7.85;;;;;;;;;;5528745;25;20002;-65
2024/04/09 12:02:21;;;;;;;11.88;7.85;;;;;;;;;;5528427;25;20007;-66
2024/04/09 12:04:46;;;;;;;14.18;7.97;;;;;;;;;;5527182;25;20009;-65
2024/04/09 12:07:11;;;;;;;10.70;7.38;;;;;;;;;;5525217;25;20012;-66
2024/04/09 12:09:38;;;;;;;18.17;7.60;;;;;;;;;;5528876;25;19997;-66
2024/04/09 12:12:08;;;;;;;13.52;7.78;;;;;;;;;;5527839;25;20001;-66
2024/04/09 12:14:33;;;;;;;12.07;7.78;;;;;;;;;;5524769;25;19997;-67
2024/04/09 12:16:59;;;;;;;19.50;9.40;;;;;;;;;;5524780;26;20063;-65
2024/04/09 12:19:24;;;;;;;17.77;9.13;;;;;;;;;;5528025;25;20063;-65
2024/04/09 12:21:49;;;;;;;17.20;9.05;;;;;;;;;;5528069;25;20002;-65
2024/04/09 12:24:15;;;;;;;12.60;8.80;;;;;;;;;;5526062;25;20395;-65
2024/04/09 12:26:41;;;;;;;19.17;8.40;;;;;;;;;;5524764;26;20069;-66
2024/04/09 12:29:07;;;;;;;20.88;8.60;;;;;;;;;;5527108;25;20038;-66
2024/04/09 12:31:32;;;;;;;16.52;8.35;;;;;;;;;;5527742;25;20009;-65
2024/04/09 12:33:58;;;;;;;17.15;8.07;;;;;;;;;;5526438;25;20029;-66
2024/04/09 12:36:23;;;;;;;16.25;7.43;;;;;;;;;;5526443;25;20021;-66
2024/04/09 12:38:48;;;;;;;12.23;8.18;;;;;;;;;;5527025;26;19993;-65
2024/04/09 12:41:14;;;;;;;16.20;8.80;;;;;;;;;;5525127;26;20001;-66
2024/04/09 12:43:39;;;;;;;18.25;8.65;;;;;;;;;;5518129;26;20006;-65
2024/04/09 12:46:05;;;;;;;14.98;8.25;;;;;;;;;;5489264;26;20009;-66
2024/04/09 12:48:31;;;;;;;15.82;8.60;;;;;;;;;;5489751;26;19998;-65
2024/04/09 12:50:56;;;;;;;17.27;8.57;;;;;;;;;;5489471;26;20010;-66
2024/04/09 12:53:21;;;;;;;20.63;8.63;;;;;;;;;;5489700;26;20002;-65
2024/04/09 12:55:48;;;;;;;14.25;7.75;;;;;;;;;;5487242;26;20010;-65
2024/04/09 12:58:13;;;;;;;15.18;8.13;;;;;;;;;;5501695;26;20060;-65
2024/04/09 13:00:39;;;;;;;15.65;8.80;;;;;;;;;;5525148;25;20304;-66
2024/04/09 13:03:04;;;;;;;15.48;7.55;;;;;;;;;;5526256;25;20104;-66
2024/04/09 13:05:30;;;;;;;14.07;8.48;;;;;;;;;;5526867;25;20445;-66
2024/04/09 13:07:56;;;;;;;16.38;7.90;;;;;;;;;;5525520;25;20001;-65
2024/04/09 13:10:21;;;;;;;19.80;8.48;;;;;;;;;;5517663;26;20038;-65
2024/04/09 13:12:47;;;;;;;21.20;9.25;;;;;;;;;;5524431;25;19998;-71
2024/04/09 13:15:12;;;;;;;14.98;8.52;;;;;;;;;;5525606;25;20445;-71
2024/04/09 13:17:38;;;;;;;17.85;8.35;;;;;;;;;;5526014;25;20453;-80
2024/04/09 13:20:04;;;;;;;17.42;8.85;;;;;;;;;;5525157;26;19994;-74
2024/04/09 13:22:30;;;;;;;12.95;7.82;;;;;;;;;;5526300;25;19997;-66
2024/04/09 13:24:55;;;;;;;16.27;8.15;;;;;;;;;;5501146;25;20409;-64
2024/04/09 13:27:21;;;;;;;13.93;8.27;;;;;;;;;;5486477;26;20071;-66
2024/04/09 13:29:46;;;;;;;16.80;8.20;;;;;;;;;;5455996;26;20010;-67
2024/04/09 13:32:14;;;;;;;17.98;8.38;;;;;;;;;;5497064;26;20281;-66
2024/04/09 13:34:39;;;;;;;10.98;6.60;;;;;;;;;;5520420;26;20479;-67
2024/04/09 13:37:04;;;;;;;11.90;6.55;;;;;;;;;;5525017;26;20013;-67
2024/04/09 13:39:30;;;;;;;14.32;7.13;;;;;;;;;;5514339;25;20016;-65
2024/04/09 13:41:55;;;;;;;13.48;6.32;;;;;;;;;;5488477;26;20285;-66
2024/04/09 13:44:20;;;;;;;13.70;6.97;;;;;;;;;;5510733;25;20009;-75
2024/04/09 13:46:47;;;;;;;13.75;7.20;;;;;;;;;;5520078;26;20300;-70
2024/04/09 13:49:13;;;;;;;13.30;8.20;;;;;;;;;;5523480;26;19997;-71
2024/04/09 13:51:38;;;;;;;15.40;7.05;;;;;;;;;;5521294;26;19997;-74
2024/04/09 13:54:04;;;;;;;18.05;7.57;;;;;;;;;;5510565;25;20017;-71
2024/04/09 13:56:30;;;;;;;13.30;7.53;;;;;;;;;;5515008;25;20002;-73
2024/04/09 13:58:55;;;;;;;15.95;7.35;;;;;;;;;;5512858;25;20913;-74
2024/04/09 14:01:21;;;;;;;16.05;7.38;;;;;;;;;;5490268;26;20005;-74
2024/04/09 14:03:46;;;;;;;15.70;7.88;;;;;;;;;;5522919;25;20009;-72
2024/04/09 14:06:11;;;;;;;14.60;7.90;;;;;;;;;;5523289;26;20020;-67
2024/04/09 14:08:37;;;;;;;13.13;7.25;;;;;;;;;;5524133;26;19998;-72
2024/04/09 14:11:03;;;;;;;15.88;7.65;;;;;;;;;;5523528;25;20401;-69
2024/04/09 14:13:28;;;;;;;17.00;7.95;;;;;;;;;;5520951;25;20013;-70
2024/04/09 14:15:54;;;;;;;13.32;7.03;;;;;;;;;;5508623;25;20013;-69
2024/04/09 14:18:19;;;;;;;14.65;7.18;;;;;;;;;;5524910;25;20013;-73
2024/04/09 14:20:48;;;;;;;13.75;6.95;;;;;;;;;;5518595;25;20001;-77
2024/04/09 14:23:13;;;;;;;15.77;7.68;;;;;;;;;;5509853;26;20002;-68
2024/04/09 14:25:39;;;;;;;15.43;7.07;;;;;;;;;;5502284;26;20037;-72
2024/04/09 14:28:05;;;;;;;13.38;7.10;;;;;;;;;;5514112;26;20008;-67
2024/04/09 14:30:31;;;;;;;14.75;7.22;;;;;;;;;;5503541;25;19998;-70